createdAt,value
2024-04-25T00:00:15.118Z,91003.13
2024-04-25T00:02:41.886Z,91003.13
2024-04-25T00:05:08.666Z,91006.44
2024-04-25T00:07:35.416Z,91005.13
2024-04-25T00:10:02.104Z,90998.94
2024-04-25T00:12:28.959Z,91001.84
2024-04-25T00:14:55.698Z,90996.38
2024-04-25T00:17:22.495Z,90992.00
2024-04-25T00:19:49.326Z,90990.56
2024-04-25T00:22:16.004Z,90987.63
2024-04-25T00:24:42.712Z,90984.91
2024-04-25T00:27:12.186Z,90982.53
2024-04-25T00:29:39.434Z,90979.97
2024-04-25T00:32:06.902Z,90989.63
2024-04-25T00:34:33.619Z,90984.72
2024-04-25T00:37:00.328Z,90982.53
2024-04-25T00:39:27.022Z,90983.25
2024-04-25T00:41:53.811Z,90984.72
2024-04-25T00:44:20.724Z,90970.84
2024-04-25T00:46:49.408Z,90963.00
2024-04-25T00:49:17.482Z,90967.94
2024-04-25T00:51:45.141Z,90965.19
2024-04-25T00:54:11.926Z,90965.38
2024-04-25T00:56:40.461Z,90959.72
2024-04-25T00:59:08.562Z,90961.34
2024-04-25T01:01:39.298Z,90970.84
2024-04-25T01:04:06.737Z,90967.94
2024-04-25T01:06:34.556Z,90965.00
2024-04-25T01:09:01.687Z,90961.00
2024-04-25T01:11:30.484Z,90963.75
2024-04-25T01:13:57.355Z,90954.06
2024-04-25T01:16:24.158Z,90970.47
2024-04-25T01:18:50.865Z,90975.94
2024-04-25T01:21:17.829Z,90960.81
2024-04-25T01:23:46.932Z,90959.34
2024-04-25T01:26:14.224Z,90958.09
2024-04-25T01:28:41.702Z,90959.34
2024-04-25T01:31:09.189Z,90958.44
2024-04-25T01:33:38.215Z,90960.63
2024-04-25T01:36:05.814Z,90975.63
2024-04-25T01:38:32.597Z,90977.06
2024-04-25T01:40:59.407Z,90973.03
2024-04-25T01:43:26.097Z,90979.25
2024-04-25T01:45:52.845Z,90973.03
2024-04-25T01:48:19.768Z,90981.09
2024-04-25T01:50:46.681Z,90972.69
2024-04-25T01:53:13.561Z,90979.06
2024-04-25T01:55:40.340Z,90970.13
2024-04-25T01:58:07.046Z,90970.13
2024-04-25T02:00:33.842Z,90968.66
2024-04-25T02:03:00.739Z,90963.94
2024-04-25T02:05:27.493Z,90973.41
2024-04-25T02:07:55.916Z,90961.75
2024-04-25T02:10:22.658Z,90961.75
2024-04-25T02:12:49.342Z,90961.75
2024-04-25T02:15:16.526Z,90965.75
2024-04-25T02:17:43.992Z,90966.47
2024-04-25T02:20:30.976Z,90957.53
2024-04-25T02:23:16.946Z,90959.00
2024-04-25T02:25:43.792Z,90969.22
2024-04-25T02:28:10.485Z,90965.75
2024-04-25T02:30:37.224Z,90966.47
2024-04-25T02:33:04.492Z,90965.00
2024-04-25T02:35:31.315Z,90970.47
2024-04-25T02:37:58.032Z,90969.78
2024-04-25T02:40:24.907Z,90965.56
2024-04-25T02:42:51.854Z,90968.31
2024-04-25T02:45:18.576Z,90968.31
2024-04-25T02:47:45.496Z,90975.81
2024-04-25T02:50:12.813Z,90973.78
2024-04-25T02:52:39.784Z,90976.31
2024-04-25T02:55:07.170Z,90981.81
2024-04-25T02:57:33.945Z,90981.81
2024-04-25T03:00:00.747Z,90983.28
2024-04-25T03:02:28.319Z,90981.81
2024-04-25T03:04:55.110Z,90988.75
2024-04-25T03:07:22.097Z,90983.28
2024-04-25T03:09:48.819Z,90987.28
2024-04-25T03:12:15.588Z,90981.81
2024-04-25T03:14:42.408Z,90981.81
2024-04-25T03:17:09.286Z,90985.84
2024-04-25T03:19:36.016Z,90990.00
2024-04-25T03:22:02.765Z,90984.53
2024-04-25T03:24:29.493Z,90985.84
2024-04-25T03:26:56.200Z,90984.53
2024-04-25T03:29:22.995Z,90984.38
2024-04-25T03:31:50.099Z,90983.09
2024-04-25T03:34:17.463Z,90987.28
2024-04-25T03:36:44.204Z,90994.22
2024-04-25T03:39:10.923Z,90995.66
2024-04-25T03:41:37.753Z,90990.19
2024-04-25T03:44:05.089Z,90983.47
2024-04-25T03:46:31.853Z,90973.97
2024-04-25T03:48:58.720Z,90975.97
2024-04-25T03:51:25.480Z,90970.47
2024-04-25T03:53:52.341Z,90971.78
2024-04-25T03:56:19.192Z,90968.31
2024-04-25T03:58:46.016Z,90970.84
2024-04-25T04:01:15.612Z,90973.06
2024-04-25T04:03:42.513Z,90972.31
2024-04-25T04:06:09.305Z,90979.06
2024-04-25T04:08:37.563Z,90977.63
2024-04-25T04:11:04.801Z,90978.91
2024-04-25T04:13:33.230Z,90970.50
2024-04-25T04:15:59.980Z,90980.00
2024-04-25T04:18:26.790Z,90973.06
2024-04-25T04:20:53.627Z,90971.59
2024-04-25T04:23:20.533Z,90971.59
2024-04-25T04:25:47.413Z,90977.06
2024-04-25T04:28:15.787Z,90976.34
2024-04-25T04:30:43.018Z,90977.06
2024-04-25T04:33:10.093Z,90985.47
2024-04-25T04:35:37.066Z,90986.75
2024-04-25T04:38:04.025Z,90988.56
2024-04-25T04:40:30.799Z,90985.13
2024-04-25T04:42:57.512Z,90991.13
2024-04-25T04:45:24.202Z,90993.16
2024-04-25T04:47:50.979Z,90992.97
2024-04-25T04:50:20.848Z,90993.50
2024-04-25T04:52:47.833Z,90996.97
2024-04-25T04:55:15.157Z,90993.50
2024-04-25T04:57:41.994Z,90992.03
2024-04-25T05:00:10.228Z,90984.38
2024-04-25T05:02:37.066Z,90988.75
2024-04-25T05:05:03.971Z,90984.75
2024-04-25T05:07:30.719Z,90984.75
2024-04-25T05:09:57.451Z,90982.91
2024-04-25T05:12:26.540Z,90990.41
2024-04-25T05:14:54.770Z,90981.66
2024-04-25T05:17:21.543Z,90979.81
2024-04-25T05:19:48.255Z,90973.81
2024-04-25T05:22:15.308Z,90981.47
2024-04-25T05:24:42.007Z,90976.00
2024-04-25T05:27:08.707Z,90973.25
2024-04-25T05:29:36.949Z,90982.16
2024-04-25T05:32:04.955Z,90976.00
2024-04-25T05:34:31.713Z,90980.16
2024-04-25T05:36:58.611Z,90981.47
2024-04-25T05:39:26.156Z,90974.50
2024-04-25T05:41:52.893Z,90985.47
2024-04-25T05:44:19.945Z,90986.94
2024-04-25T05:46:46.741Z,90978.53
2024-04-25T05:49:13.566Z,90985.47
2024-04-25T05:51:40.271Z,90986.94
2024-04-25T05:54:07.015Z,90993.13
2024-04-25T05:56:33.759Z,90987.66
2024-04-25T05:59:00.503Z,90988.19
2024-04-25T06:01:27.231Z,90988.38
2024-04-25T06:03:54.076Z,90986.94
2024-04-25T06:06:20.876Z,90988.38
2024-04-25T06:08:47.688Z,90988.38
2024-04-25T06:11:14.734Z,90978.91
2024-04-25T06:13:42.659Z,90985.09
2024-04-25T06:16:09.435Z,90983.84
2024-04-25T06:18:36.165Z,90982.53
2024-04-25T06:21:02.914Z,90983.28
2024-04-25T06:23:29.696Z,90979.25
2024-04-25T06:25:56.431Z,90974.50
2024-04-25T06:28:23.138Z,90984.91
2024-04-25T06:30:49.842Z,90976.88
2024-04-25T06:33:16.715Z,90971.59
2024-04-25T06:35:43.687Z,90975.94
2024-04-25T06:38:15.709Z,90975.41
2024-04-25T06:40:43.709Z,90975.59
2024-04-25T06:43:10.666Z,90976.31
2024-04-25T06:45:41.494Z,90973.75
2024-04-25T06:48:12.688Z,90975.94
2024-04-25T06:50:40.321Z,90969.91
2024-04-25T06:53:07.129Z,90968.66
2024-04-25T06:55:33.898Z,90971.53
2024-04-25T06:58:01.052Z,90973.00
2024-04-25T07:00:27.868Z,90966.25
2024-04-25T07:02:55.059Z,90963.50
2024-04-25T07:05:21.808Z,90964.44
2024-04-25T07:07:48.528Z,90963.13
2024-04-25T07:10:15.223Z,90959.13
2024-04-25T07:12:41.926Z,90960.59
2024-04-25T07:15:08.826Z,90955.84
2024-04-25T07:17:35.881Z,90954.53
2024-04-25T07:20:04.172Z,90953.28
2024-04-25T07:22:30.940Z,90949.25
2024-04-25T07:24:58.516Z,90947.81
2024-04-25T07:27:25.295Z,90953.28
2024-04-25T07:29:52.077Z,90948.53
2024-04-25T07:32:19.048Z,90953.28
2024-04-25T07:34:45.974Z,90956.03
2024-04-25T07:37:12.808Z,90947.06
2024-04-25T07:39:39.532Z,90945.06
2024-04-25T07:42:06.221Z,90946.34
2024-04-25T07:44:32.982Z,90947.81
2024-04-25T07:46:59.763Z,90944.34
2024-04-25T07:49:26.513Z,90950.00
2024-04-25T07:51:53.235Z,90939.03
2024-04-25T07:54:20.075Z,90940.47
2024-04-25T07:56:46.989Z,90945.44
2024-04-25T07:59:13.859Z,90931.56
2024-04-25T08:01:40.659Z,90935.00
2024-04-25T08:04:07.569Z,90933.19
2024-04-25T08:06:35.890Z,90937.38
2024-04-25T08:09:02.880Z,90934.63
2024-04-25T08:11:29.896Z,90935.38
2024-04-25T08:13:59.512Z,90934.63
2024-04-25T08:16:28.044Z,90936.09
2024-04-25T08:18:55.987Z,90934.63
2024-04-25T08:21:23.552Z,90928.06
2024-04-25T08:23:50.347Z,90926.03
2024-04-25T08:26:17.191Z,90920.03
2024-04-25T08:28:43.974Z,90922.22
2024-04-25T08:31:10.782Z,90918.91
2024-04-25T08:33:38.132Z,90920.34
2024-04-25T08:36:05.392Z,90914.88
2024-04-25T08:38:34.494Z,90919.25
2024-04-25T08:41:01.309Z,90909.00
2024-04-25T08:43:28.917Z,90904.28
2024-04-25T08:45:56.144Z,90911.22
2024-04-25T08:48:24.037Z,90908.63
2024-04-25T08:50:53.326Z,90901.88
2024-04-25T08:53:24.760Z,90899.16
2024-04-25T08:55:52.803Z,90893.84
2024-04-25T08:58:20.280Z,90885.63
2024-04-25T09:00:46.991Z,90895.47
2024-04-25T09:03:15.736Z,90885.97
2024-04-25T09:05:42.922Z,90889.44
2024-04-25T09:08:12.285Z,90892.72
2024-04-25T09:10:44.253Z,90885.25
2024-04-25T09:13:11.352Z,90887.44
2024-04-25T09:15:38.469Z,90881.94
2024-04-25T09:18:05.767Z,90880.81
2024-04-25T09:20:32.900Z,90883.56
2024-04-25T09:23:03.447Z,90887.03
2024-04-25T09:25:33.461Z,90891.97
2024-04-25T09:28:02.530Z,90882.31
2024-04-25T09:30:31.565Z,90878.25
2024-04-25T09:32:58.413Z,90874.25
2024-04-25T09:35:25.379Z,90873.53
2024-04-25T09:37:52.383Z,90868.78
2024-04-25T09:40:19.112Z,90864.75
2024-04-25T09:42:46.671Z,90859.09
2024-04-25T09:45:16.468Z,90864.75
2024-04-25T09:47:51.936Z,90864.56
2024-04-25T09:50:26.746Z,90864.56
2024-04-25T09:53:05.110Z,90857.81
2024-04-25T09:55:45.527Z,90859.25
2024-04-25T09:58:40.312Z,90863.28
2024-04-25T10:01:08.651Z,90863.44
2024-04-25T10:03:36.003Z,90862.19
2024-04-25T10:06:02.987Z,90857.44
2024-04-25T10:08:30.058Z,90852.66
2024-04-25T10:10:59.857Z,90854.13
2024-04-25T10:13:28.810Z,90855.56
2024-04-25T10:15:57.915Z,90850.25
2024-04-25T10:18:25.490Z,90853.00
2024-04-25T10:21:03.375Z,90831.81
2024-04-25T10:23:37.006Z,90839.47
2024-04-25T10:26:03.998Z,90830.69
2024-04-25T10:28:31.346Z,90827.97
2024-04-25T10:30:59.637Z,90825.78
2024-04-25T10:33:26.512Z,90824.81
2024-04-25T10:35:55.177Z,90820.78
2024-04-25T10:38:22.935Z,90818.22
2024-04-25T10:40:52.540Z,90814.22
2024-04-25T10:43:19.210Z,90807.25
2024-04-25T10:45:46.129Z,90804.72
2024-04-25T10:48:13.051Z,90800.69
2024-04-25T10:50:40.030Z,90793.91
2024-04-25T10:53:06.783Z,90791.19
2024-04-25T10:55:34.400Z,90785.69
2024-04-25T10:58:12.347Z,90785.69
2024-04-25T11:00:45.495Z,90780.22
2024-04-25T11:03:13.205Z,90773.28
2024-04-25T11:05:41.964Z,90774.75
2024-04-25T11:08:08.858Z,90777.47
2024-04-25T11:10:36.574Z,90762.34
2024-04-25T11:13:03.760Z,90760.88
2024-04-25T11:15:32.595Z,90759.03
2024-04-25T11:18:07.296Z,90754.28
2024-04-25T11:20:40.162Z,90758.47
2024-04-25T11:23:18.257Z,90754.28
2024-04-25T11:25:49.860Z,90752.97
2024-04-25T11:28:19.056Z,90737.84
2024-04-25T11:30:45.818Z,90740.88
2024-04-25T11:33:12.710Z,90739.63
2024-04-25T11:35:45.866Z,90742.53
2024-04-25T11:38:13.649Z,90741.06
2024-04-25T11:40:43.738Z,90719.88
2024-04-25T11:43:16.693Z,90718.00
2024-04-25T11:45:47.777Z,90714.72
2024-04-25T11:48:19.312Z,90708.50
2024-04-25T11:50:46.748Z,90707.03
2024-04-25T11:53:13.712Z,90709.94
2024-04-25T11:55:41.846Z,90705.91
2024-04-25T11:58:09.160Z,90701.88
2024-04-25T12:00:39.713Z,90702.63
2024-04-25T12:03:07.001Z,90700.59
2024-04-25T12:05:33.935Z,90699.31
2024-04-25T12:08:04.940Z,90693.81
2024-04-25T12:10:32.359Z,90696.72
2024-04-25T12:12:59.339Z,90694.00
2024-04-25T12:15:26.384Z,90692.56
2024-04-25T12:17:53.669Z,90684.47
2024-04-25T12:20:20.795Z,90680.28
2024-04-25T12:22:47.514Z,90672.22
2024-04-25T12:25:14.298Z,90677.72
2024-04-25T12:27:40.966Z,90675.69
2024-04-25T12:30:08.059Z,90668.19
2024-04-25T12:32:34.988Z,90675.13
2024-04-25T12:35:02.404Z,90675.13
2024-04-25T12:37:29.153Z,90670.34
2024-04-25T12:39:55.871Z,90662.88
2024-04-25T12:42:24.056Z,90663.59
2024-04-25T12:44:54.053Z,90662.28
2024-04-25T12:47:21.298Z,90656.09
2024-04-25T12:49:48.108Z,90656.09
2024-04-25T12:52:14.839Z,90658.97
2024-04-25T12:54:41.606Z,90656.25
2024-04-25T12:57:08.355Z,90657.72
2024-04-25T12:59:35.310Z,90644.00
2024-04-25T13:02:02.021Z,90656.41
2024-04-25T13:04:28.756Z,90642.69
2024-04-25T13:06:55.538Z,90640.13
2024-04-25T13:09:22.242Z,90638.69
2024-04-25T13:11:49.160Z,90638.84
2024-04-25T13:14:15.950Z,90633.34
2024-04-25T13:16:42.677Z,90641.03
2024-04-25T13:19:09.743Z,90633.50
2024-04-25T13:21:39.645Z,90632.22
2024-04-25T13:24:06.646Z,90626.75
2024-04-25T13:26:34.974Z,90622.69
2024-04-25T13:29:02.169Z,90621.97
2024-04-25T13:31:28.902Z,90629.63
2024-04-25T13:33:56.561Z,90619.38
2024-04-25T13:36:23.529Z,90603.66
2024-04-25T13:38:50.392Z,90606.41
2024-04-25T13:41:18.128Z,90605.13
2024-04-25T13:43:44.885Z,90605.13
2024-04-25T13:46:11.590Z,90595.59
2024-04-25T13:48:38.733Z,90597.06
2024-04-25T13:51:07.636Z,90595.59
2024-04-25T13:53:34.510Z,90591.56
2024-04-25T13:56:01.464Z,90591.56
2024-04-25T13:58:28.183Z,90582.78
2024-04-25T14:00:57.791Z,90582.78
2024-04-25T14:03:24.577Z,90584.22
2024-04-25T14:05:52.011Z,90590.44
2024-04-25T14:08:19.078Z,90586.38
2024-04-25T14:10:46.018Z,90580.91
2024-04-25T14:13:12.703Z,90581.63
2024-04-25T14:15:39.450Z,90590.03
2024-04-25T14:18:06.386Z,90579.78
2024-04-25T14:20:33.194Z,90583.81
2024-04-25T14:23:00.018Z,90580.50
2024-04-25T14:25:45.289Z,90580.50
2024-04-25T14:28:30.662Z,90585.28
2024-04-25T14:30:57.439Z,90583.97
2024-04-25T14:33:25.074Z,90581.94
2024-04-25T14:35:53.515Z,90575.72
2024-04-25T14:38:20.574Z,90566.19
2024-04-25T14:40:49.192Z,90570.41
2024-04-25T14:43:17.721Z,90573.16
2024-04-25T14:45:45.281Z,90573.16
2024-04-25T14:48:12.495Z,90567.66
2024-04-25T14:50:39.933Z,90566.19
2024-04-25T14:53:08.413Z,90573.16
2024-04-25T14:55:35.198Z,90565.09
2024-04-25T14:58:02.033Z,90568.53
2024-04-25T15:00:28.793Z,90561.03
2024-04-25T15:02:55.622Z,90567.97
2024-04-25T15:05:22.427Z,90567.97
2024-04-25T15:07:49.328Z,90563.94
2024-04-25T15:10:18.502Z,90559.88
2024-04-25T15:12:45.828Z,90559.88
2024-04-25T15:15:18.294Z,90562.63
2024-04-25T15:17:50.170Z,90560.63
2024-04-25T15:20:17.144Z,90565.38
2024-04-25T15:22:44.275Z,90565.38
2024-04-25T15:25:11.269Z,90570.16
2024-04-25T15:27:38.072Z,90574.91
2024-04-25T15:30:05.363Z,90573.47
2024-04-25T15:32:32.112Z,90563.19
2024-04-25T15:34:59.079Z,90561.03
2024-04-25T15:37:26.046Z,90567.97
2024-04-25T15:39:54.260Z,90562.50
2024-04-25T15:42:20.990Z,90567.25
2024-04-25T15:44:48.173Z,90570.00
2024-04-25T15:47:15.276Z,90567.81
2024-04-25T15:49:42.065Z,90566.53
2024-04-25T15:52:11.334Z,90569.09
2024-04-25T15:54:38.173Z,90559.59
2024-04-25T15:57:04.942Z,90566.34
2024-04-25T15:59:31.706Z,90565.78
2024-04-25T16:01:58.427Z,90562.91
2024-04-25T16:04:25.475Z,90567.66
2024-04-25T16:06:52.749Z,90573.16
2024-04-25T16:09:19.437Z,90573.16
2024-04-25T16:11:46.237Z,90567.66
2024-04-25T16:14:12.969Z,90569.69
2024-04-25T16:16:39.727Z,90573.00
2024-04-25T16:19:06.596Z,90577.16
2024-04-25T16:21:33.288Z,90570.25
2024-04-25T16:23:59.999Z,90570.25
2024-04-25T16:26:27.789Z,90582.38
2024-04-25T16:28:54.732Z,90573.97
2024-04-25T16:31:21.457Z,90565.59
2024-04-25T16:33:48.294Z,90574.38
2024-04-25T16:36:28.564Z,90572.22
2024-04-25T16:38:58.782Z,90573.31
2024-04-25T16:41:25.577Z,90574.63
2024-04-25T16:43:52.270Z,90571.16
2024-04-25T16:46:19.004Z,90579.97
2024-04-25T16:48:49.527Z,90572.88
2024-04-25T16:51:20.343Z,90577.06
2024-04-25T16:53:47.199Z,90583.09
2024-04-25T16:56:13.967Z,90576.72
2024-04-25T16:58:40.691Z,90587.00
2024-04-25T17:01:07.441Z,90584.94
2024-04-25T17:03:34.594Z,90588.25
2024-04-25T17:06:01.521Z,90579.34
2024-04-25T17:08:29.199Z,90594.31
2024-04-25T17:10:57.462Z,90593.03
2024-04-25T17:13:24.302Z,90594.31
2024-04-25T17:15:51.028Z,90601.69
2024-04-25T17:18:21.156Z,90595.47
2024-04-25T17:20:48.031Z,90596.91
2024-04-25T17:23:16.239Z,90605.69
2024-04-25T17:25:43.010Z,90604.97
2024-04-25T17:28:09.774Z,90604.25
2024-04-25T17:30:36.457Z,90611.75
2024-04-25T17:33:03.306Z,90607.56
2024-04-25T17:35:30.098Z,90611.59
2024-04-25T17:37:56.792Z,90610.84
2024-04-25T17:40:24.377Z,90610.16
2024-04-25T17:42:51.104Z,90621.09
2024-04-25T17:45:17.848Z,90619.63
2024-04-25T17:47:45.883Z,90630.59
2024-04-25T17:50:12.639Z,90630.59
2024-04-25T17:52:39.751Z,90645.63
2024-04-25T17:55:07.656Z,90644.88
2024-04-25T17:57:35.311Z,90657.84
2024-04-25T18:00:03.040Z,90656.41
2024-04-25T18:02:33.337Z,90659.16
2024-04-25T18:05:03.235Z,90670.13
2024-04-25T18:07:32.204Z,90665.91
2024-04-25T18:09:58.936Z,90672.69
2024-04-25T18:12:25.759Z,90672.69
2024-04-25T18:14:55.233Z,90686.41
2024-04-25T18:17:25.554Z,90691.72
2024-04-25T18:19:52.515Z,90697.19
2024-04-25T18:22:25.045Z,90695.03
2024-04-25T18:24:52.818Z,90695.75
2024-04-25T18:27:20.692Z,90706.88
2024-04-25T18:29:48.362Z,90706.16
2024-04-25T18:32:15.455Z,90715.13
2024-04-25T18:34:44.995Z,90716.38
2024-04-25T18:37:12.044Z,90720.59
2024-04-25T18:39:38.878Z,90731.69
2024-04-25T18:42:08.903Z,90741.22
2024-04-25T18:44:36.953Z,90730.25
2024-04-25T18:47:04.230Z,90734.31
2024-04-25T18:49:32.430Z,90742.53
2024-04-25T18:52:00.290Z,90738.31
2024-04-25T18:54:27.807Z,90752.03
2024-04-25T18:56:55.180Z,90753.31
2024-04-25T18:59:22.672Z,90755.31
2024-04-25T19:01:49.497Z,90758.06
2024-04-25T19:04:21.490Z,90765.38
2024-04-25T19:06:50.644Z,90774.34
2024-04-25T19:09:21.347Z,90774.34
2024-04-25T19:11:49.224Z,90782.41
2024-04-25T19:14:16.884Z,90792.09
2024-04-25T19:16:44.404Z,90787.16
2024-04-25T19:19:12.242Z,90802.16
2024-04-25T19:21:43.524Z,90796.66
2024-04-25T19:24:10.996Z,90804.16
2024-04-25T19:26:38.094Z,90817.84
2024-04-25T19:29:05.270Z,90825.19
2024-04-25T19:31:41.217Z,90818.97
2024-04-25T19:34:08.467Z,90823.91
2024-04-25T19:36:38.294Z,90838.13
2024-04-25T19:39:05.470Z,90835.41
2024-04-25T19:41:33.756Z,90844.19
2024-04-25T19:44:00.645Z,90844.91
2024-04-25T19:46:27.371Z,90849.66
2024-04-25T19:48:54.252Z,90848.19
2024-04-25T19:51:21.013Z,90856.28
2024-04-25T19:53:47.885Z,90857.72
2024-04-25T19:56:14.760Z,90863.19
2024-04-25T19:58:42.732Z,90871.25
2024-04-25T20:01:10.039Z,90865.75
2024-04-25T20:03:36.996Z,90869.78
2024-04-25T20:06:03.981Z,90873.97
2024-04-25T20:08:30.714Z,90875.28
2024-04-25T20:10:57.479Z,90880.03
2024-04-25T20:13:24.187Z,90890.97
2024-04-25T20:15:50.885Z,90887.50
2024-04-25T20:18:36.028Z,90890.25
2024-04-25T20:21:08.692Z,90892.81
2024-04-25T20:23:40.069Z,90894.84
2024-04-25T20:26:11.861Z,90892.09
2024-04-25T20:28:40.485Z,90892.66
2024-04-25T20:31:12.928Z,90894.66
2024-04-25T20:33:39.744Z,90895.41
2024-04-25T20:36:10.449Z,90895.22
2024-04-25T20:38:37.910Z,90892.50
2024-04-25T20:41:05.472Z,90899.41
2024-04-25T20:43:32.161Z,90900.72
2024-04-25T20:45:58.970Z,90893.75
2024-04-25T20:48:26.013Z,90906.00
2024-04-25T20:50:53.418Z,90906.00
2024-04-25T20:53:20.371Z,90901.28
2024-04-25T20:55:47.170Z,90908.03
2024-04-25T20:58:13.981Z,90918.25
2024-04-25T21:00:40.897Z,90911.31
2024-04-25T21:03:07.650Z,90913.31
2024-04-25T21:05:34.445Z,90916.81
2024-04-25T21:08:01.165Z,90919.53
2024-04-25T21:10:27.904Z,90925.03
2024-04-25T21:12:54.638Z,90932.50
2024-04-25T21:15:21.335Z,90933.06
2024-04-25T21:17:48.147Z,90933.06
2024-04-25T21:20:14.957Z,90938.38
2024-04-25T21:22:45.132Z,90944.03
2024-04-25T21:25:11.863Z,90945.13
2024-04-25T21:27:38.633Z,90941.09
2024-04-25T21:30:05.709Z,90952.06
2024-04-25T21:32:39.864Z,90957.38
2024-04-25T21:35:11.590Z,90954.63
2024-04-25T21:37:38.322Z,90960.09
2024-04-25T21:40:05.551Z,90964.13
2024-04-25T21:42:32.268Z,90970.34
2024-04-25T21:44:58.995Z,90969.63
2024-04-25T21:47:25.800Z,90972.19
2024-04-25T21:49:52.552Z,90972.91
2024-04-25T21:52:19.235Z,90977.66
2024-04-25T21:54:45.929Z,90974.19
2024-04-25T21:57:18.202Z,90972.75
2024-04-25T21:59:45.755Z,90976.75
2024-04-25T22:02:12.537Z,90974.00
2024-04-25T22:04:39.232Z,90978.22
2024-04-25T22:07:06.277Z,90975.47
2024-04-25T22:09:33.019Z,90982.97
2024-04-25T22:11:59.833Z,90978.94
2024-04-25T22:14:26.675Z,90974.91
2024-04-25T22:16:53.403Z,90976.94
2024-04-25T22:19:20.386Z,90973.63
2024-04-25T22:21:49.714Z,90977.66
2024-04-25T22:24:18.040Z,90977.66
2024-04-25T22:26:46.056Z,90971.81
2024-04-25T22:29:12.825Z,90981.50
2024-04-25T22:31:39.563Z,90982.06
2024-04-25T22:34:06.341Z,90979.16
2024-04-25T22:36:33.090Z,90978.41
2024-04-25T22:39:00.297Z,90984.63
2024-04-25T22:41:27.088Z,90983.91
2024-04-25T22:43:53.814Z,90989.38
2024-04-25T22:46:20.530Z,90990.66
2024-04-25T22:48:47.579Z,90990.66
2024-04-25T22:51:17.243Z,90994.66
2024-04-25T22:53:44.060Z,90995.22
2024-04-25T22:56:10.906Z,91000.69
2024-04-25T22:58:37.682Z,91001.25
2024-04-25T23:01:04.611Z,90998.53
2024-04-25T23:03:32.139Z,90997.03
2024-04-25T23:05:59.393Z,90997.03
2024-04-25T23:08:26.388Z,90994.13
2024-04-25T23:10:53.222Z,91000.34
2024-04-25T23:13:20.076Z,90999.44
2024-04-25T23:15:47.114Z,90996.88
2024-04-25T23:18:14.152Z,91002.91
2024-04-25T23:20:41.056Z,90996.72
2024-04-25T23:23:07.872Z,91000.72
2024-04-25T23:25:34.609Z,91001.28
2024-04-25T23:28:01.341Z,91002.00
2024-04-25T23:30:28.182Z,91001.81
2024-04-25T23:32:55.350Z,91003.81
2024-04-25T23:35:22.207Z,91008.56
2024-04-25T23:37:49.009Z,91002.94
2024-04-25T23:40:17.354Z,91000.34
2024-04-25T23:42:44.133Z,91010.59
2024-04-25T23:45:10.971Z,91009.88
2024-04-25T23:47:37.791Z,91011.16
2024-04-25T23:50:04.931Z,91012.41
2024-04-25T23:52:31.690Z,91006.94
2024-04-25T23:54:58.437Z,91002.75
2024-04-25T23:57:25.144Z,91005.50
2024-04-25T23:59:51.983Z,91006.75
